M I D A S
Marine Information and Data Acquisition System
Tripno 1244 of the Zeeleeuw from 2007-04-10 06:39:03 to 2007-04-10 13:06:46
Back to CruiseResearch ActivitiesStationsMapUnderway DataData graphs

EquipmentUnitsComment
TimeDGPSUTC
LatitudeDGPSDM.mWGS84
LongitudeDGPSDM.mWGS84
TemperatureSBE03/SBE38deg celciusITS90
ConductivitySBE21S/mITS90
SalinitySBE21 Practical Salinity Units
ChlorophylAChelsea fluorimeterg/lCalibrated in Aceton
Missing or incorrect values are displayed as -999
Sea surface data collected by the RV Zeeleeuw from 2007-04-10 06:40:54 to 2007-04-10 13:10:20
Time Latitude Longitude Temperature Conductivity Salinity ChlorophylA
2007-04-10 06:42:03 51°13.613 2°56.049 18.5156 0.00643 0.035845 -2.871232
2007-04-10 06:43:03 51°13.639 2°55.953 18.4151 0.006224 0.034971 -2.871232
2007-04-10 06:44:03 51°13.672 2°55.85 22.5203 0.006121 0.034535 -2.871232
2007-04-10 06:45:00 51°13.686 2°55.772 22.116 0.006018 0.034101 -2.871232
2007-04-10 06:45:59 51°13.686 2°55.722 21.9402 0.005915 0.033667 -2.871232
2007-04-10 06:46:59 51°13.697 2°55.72 21.8704 0.00571 0.032798 -2.871232
2007-04-10 06:47:59 51°13.752 2°55.692 21.7652 0.005607 0.032366 -2.871232
2007-04-10 06:48:59 51°13.86 2°55.612 21.6885 0.005607 0.032368 -2.871232
2007-04-10 06:49:59 51°13.994 2°55.519 21.6238 0.005504 0.031936 -2.871232
2007-04-10 06:50:59 51°14.131 2°55.42 21.5253 0.005401 0.031504 -2.871232
2007-04-10 06:52:01 51°14.256 2°55.274 21.4562 0.005298 0.031073 -2.871232
2007-04-10 06:52:59 51°14.353 2°55.096 21.3834 0.005298 0.031075 -2.871232
2007-04-10 06:53:59 51°14.438 2°54.894 21.3156 0.005298 0.031077 -2.871232
2007-04-10 06:54:59 51°14.445 2°54.605 10.762 3.360552 25.132558 -2.871232
2007-04-10 06:55:59 51°14.362 2°54.29 10.3389 3.352115 28.338963 -2.871232
2007-04-10 06:56:59 51°14.261 2°53.983 10.2245 3.357193 28.739166 -2.871232
2007-04-10 06:57:59 51°14.158 2°53.685 10.1217 3.35823 28.842648 -2.871232
2007-04-10 06:58:59 51°14.056 2°53.389 10.0816 3.362061 28.952065 -2.871232
2007-04-10 06:59:59 51°13.952 2°53.093 10.0531 3.36258 28.998455 -2.871232
2007-04-10 07:00:59 51°13.85 2°52.796 10.0306 3.363719 29.046464 -2.871232
2007-04-10 07:01:59 51°13.747 2°52.5 10.0287 3.370552 29.127502 -2.871232
2007-04-10 07:02:59 51°13.644 2°52.203 10.0196 3.372209 29.149337 -2.871232
2007-04-10 07:03:59 51°13.541 2°51.908 10.0051 3.375004 29.190321 -2.871232
2007-04-10 07:04:59 51°13.439 2°51.613 9.9926 3.377904 29.232342 -2.871232
2007-04-10 07:05:59 51°13.338 2°51.318 10.0039 3.377386 29.237125 -2.871232
2007-04-10 07:06:59 51°13.235 2°51.021 10.0125 3.380492 29.266171 -2.871232
2007-04-10 07:07:59 51°13.132 2°50.723 10.0105 3.382459 29.283541 -2.871232
2007-04-10 07:08:59 51°13.028 2°50.424 10.0099 3.383598 29.289959 -2.871232
2007-04-10 07:09:59 51°12.922 2°50.126 10.012 3.385358 29.307596 -2.871232
2007-04-10 07:10:59 51°12.818 2°49.825 10.0179 3.38805 29.334175 -2.871232
2007-04-10 07:11:59 51°12.714 2°49.524 10.0299 3.388878 29.339865 -2.871232
2007-04-10 07:12:59 51°12.61 2°49.223 10.027 3.390017 29.344019 -2.871232
2007-04-10 07:13:59 51°12.506 2°48.92 10.0195 3.390949 29.357475 -2.871232
2007-04-10 07:14:59 51°12.402 2°48.617 10.0056 3.393331 29.393895 -2.871232
2007-04-10 07:15:59 51°12.298 2°48.314 10.001 3.396955 29.433975 -2.871232
2007-04-10 07:16:59 51°12.194 2°48.009 10.0108 3.400578 29.468024 -2.871232
2007-04-10 07:17:59 51°12.117 2°47.683 9.9871 3.404617 29.509842 -2.871232
2007-04-10 07:18:59 51°12.052 2°47.349 9.9868 3.408655 29.564579 -2.871232
2007-04-10 07:19:59 51°11.993 2°47.012 9.9624 3.411658 29.597252 -2.871232
2007-04-10 07:20:59 51°11.941 2°46.672 9.9332 3.413315 29.641358 -2.871232
2007-04-10 07:21:59 51°11.892 2°46.332 9.9081 3.416318 29.691646 -2.871232
2007-04-10 07:22:59 51°11.842 2°45.994 9.9124 3.415697 29.696359 -2.871232
2007-04-10 07:23:59 51°11.801 2°45.651 9.9089 3.417353 29.712328 -2.871232
2007-04-10 07:24:59 51°11.759 2°45.308 9.905 3.420977 29.754157 -2.871232
2007-04-10 07:25:59 51°11.717 2°44.962 9.9044 3.428536 29.830132 -2.871232
2007-04-10 07:26:59 51°11.675 2°44.615 9.8904 3.431539 29.860641 -2.871232
2007-04-10 07:27:59 51°11.633 2°44.267 9.8815 3.433092 29.882556 -2.871232
2007-04-10 07:28:59 51°11.592 2°43.918 9.8863 3.432057 29.88334 -2.871232
2007-04-10 07:29:59 51°11.551 2°43.569 9.9059 3.432989 29.883096 -2.871232
2007-04-10 07:30:59 51°11.489 2°43.231 9.8796 3.442515 29.968119 -2.871232
2007-04-10 07:31:59 51°11.401 2°42.908 9.8738 3.453078 30.088714 -2.871232
2007-04-10 07:32:59 51°11.307 2°42.606 9.8791 3.452767 30.086487 -2.871232
2007-04-10 07:33:59 51°11.242 2°42.419 9.8634 3.456288 30.122847 -2.871232
2007-04-10 07:34:59 51°11.199 2°42.3 9.8589 3.467472 30.240344 -2.871232
2007-04-10 07:35:59 51°11.168 2°42.207 9.8493 3.468507 30.257386 -2.871232
2007-04-10 07:36:59 51°11.132 2°42.146 9.8675 3.468818 30.262734 -2.871232
2007-04-10 07:37:59 51°11.106 2°42.091 9.8721 3.468818 30.250248 -2.871232
2007-04-10 07:38:59 51°11.097 2°42.06 9.873 3.468197 30.241898 -2.871232
2007-04-10 07:39:59 51°11.095 2°42.051 9.8676 3.468197 30.244237 -2.871232
2007-04-10 07:40:59 51°11.094 2°42.044 9.858 3.468404 30.252482 -2.871232
2007-04-10 07:41:59 51°11.092 2°42.04 9.8544 3.468404 30.257164 -2.871232
2007-04-10 07:42:59 51°11.091 2°42.038 9.8526 3.468818 30.262734 -2.871232
2007-04-10 07:43:59 51°11.09 2°42.039 9.851 3.469025 30.267862 -2.871232
2007-04-10 07:44:59 51°11.09 2°42.041 9.8501 3.469025 30.269424 -2.871232
2007-04-10 07:45:59 51°11.086 2°42.04 9.8485 3.469232 30.27221 -2.871232
2007-04-10 07:46:59 51°11.011 2°41.946 9.8602 3.468922 30.269984 -2.871232
2007-04-10 07:47:59 51°10.906 2°41.656 9.8426 3.46799 30.251595 -2.871232
2007-04-10 07:48:59 51°10.849 2°41.306 9.8354 3.468301 30.273343 -2.871232
2007-04-10 07:49:59 51°10.799 2°40.953 9.8452 3.470061 30.29039 -2.871232
2007-04-10 07:50:59 51°10.746 2°40.605 9.8961 3.475963 30.326425 -2.871232
2007-04-10 07:51:59 51°10.696 2°40.255 9.942 3.491807 30.437452 -2.871232
2007-04-10 07:52:59 51°10.647 2°39.905 9.9556 3.498124 30.473449 -2.871232
2007-04-10 07:53:59 51°10.596 2°39.554 9.9884 3.500713 30.485926 -2.871232
2007-04-10 07:54:59 51°10.551 2°39.203 9.9867 3.505787 30.50594 -2.871232
2007-04-10 07:55:59 51°10.511 2°38.851 10.0034 3.506616 30.509237 -2.871232
2007-04-10 07:56:59 51°10.469 2°38.498 9.9939 3.507651 30.512181 -2.871232
2007-04-10 07:57:59 51°10.427 2°38.143 9.9845 3.506823 30.51751 -2.871232
2007-04-10 07:58:59 51°10.385 2°37.788 9.9953 3.507755 30.524943 -2.871232
2007-04-10 07:59:59 51°10.344 2°37.434 9.9849 3.508687 30.53473 -2.871232
2007-04-10 08:00:59 51°10.318 2°37.075 9.9895 3.508066 30.532652 -2.871232
2007-04-10 08:01:59 51°10.315 2°36.715 9.9779 3.509205 30.535808 -2.871232
2007-04-10 08:02:59 51°10.408 2°36.399 9.9703 3.508687 30.544935 -2.871232
2007-04-10 08:03:59 51°10.61 2°36.286 9.9253 3.512934 30.608787 -2.871232
2007-04-10 08:04:59 51°10.82 2°36.384 9.9398 3.518527 30.679458 -2.871232
2007-04-10 08:05:59 51°11.031 2°36.498 9.9237 3.519459 30.68769 -2.871232
2007-04-10 08:06:59 51°11.243 2°36.604 9.9432 3.519252 30.691216 -2.871232
2007-04-10 08:07:59 51°11.457 2°36.705 9.9269 3.525155 30.726218 -2.871232
2007-04-10 08:08:59 51°11.668 2°36.807 9.8859 3.533234 30.843288 -2.871232
2007-04-10 08:09:59 51°11.879 2°36.906 9.9698 3.535098 30.870902 -2.871232
2007-04-10 08:10:59 51°12.091 2°37.001 9.9523 3.538722 30.827395 -2.871232
2007-04-10 08:11:59 51°12.302 2°37.094 9.8659 3.532094 30.809227 -2.871232
2007-04-10 08:12:59 51°12.515 2°37.184 9.8625 3.521945 30.772756 -2.871232
2007-04-10 08:13:59 51°12.728 2°37.273 9.8791 3.517078 30.723169 -2.871232
2007-04-10 08:14:59 51°12.943 2°37.362 9.8285 3.515524 30.706522 -2.871232
2007-04-10 08:15:59 51°13.158 2°37.453 9.8357 3.507032 30.655831 -2.871232
2007-04-10 08:16:59 51°13.373 2°37.543 9.8564 3.5061 30.639667 -2.871232
2007-04-10 08:17:59 51°13.591 2°37.594 9.792 3.50641 30.6324 -2.871232
2007-04-10 08:18:59 51°13.811 2°37.501 9.7581 3.510243 30.728244 -2.871232
2007-04-10 08:19:59 51°14.023 2°37.376 9.7171 3.506826 30.724437 -2.871232
2007-04-10 08:20:59 51°14.237 2°37.256 9.7022 3.486735 30.570293 -2.871232
2007-04-10 08:21:59 51°14.452 2°37.143 9.7005 3.495952 30.66714 -2.871232
2007-04-10 08:22:59 51°14.664 2°37.03 9.6813 3.511798 30.809472 -2.871232
2007-04-10 08:23:59 51°14.879 2°36.918 9.6208 3.517184 30.909995 -2.871232
2007-04-10 08:24:59 51°15.096 2°36.804 9.6246 3.514906 30.916664 -2.871232
2007-04-10 08:25:59 51°15.31 2°36.693 9.6065 3.517702 30.947991 -2.871232
2007-04-10 08:26:59 51°15.524 2°36.582 9.5878 3.511281 30.898135 -2.871232
2007-04-10 08:27:59 51°15.738 2°36.47 9.6062 3.510453 30.902095 -2.871232
2007-04-10 08:28:59 51°15.95 2°36.354 9.5767 3.513766 30.91277 -2.871232
2007-04-10 08:29:59 51°16.168 2°36.286 9.5703 3.510142 30.912729 -2.871232
2007-04-10 08:30:59 51°16.337 2°36.434 9.6012 3.508589 30.889504 -2.871232
2007-04-10 08:31:59 51°16.401 2°36.565 9.6108 3.510245 30.882398 -2.871232
2007-04-10 08:32:59 51°16.449 2°36.617 9.6158 3.510763 30.884243 -2.871232
2007-04-10 08:33:59 51°16.484 2°36.647 9.6156 3.511074 30.884066 -2.871232
2007-04-10 08:34:59 51°16.508 2°36.683 9.6078 3.51066 30.883232 -2.871232
2007-04-10 08:35:59 51°16.536 2°36.725 9.6048 3.509728 30.882158 -2.871232
2007-04-10 08:36:59 51°16.576 2°36.769 9.6093 3.507967 30.86416 -2.871232
2007-04-10 08:37:59 51°16.605 2°36.81 9.6046 3.50921 30.873889 -2.871232
2007-04-10 08:38:59 51°16.611 2°36.817 9.5919 3.508485 30.871625 -2.871232
2007-04-10 08:39:59 51°16.614 2°36.825 9.5823 3.507553 30.87617 -2.871232
2007-04-10 08:40:59 51°16.616 2°36.836 9.5791 3.507035 30.87593 -2.871232
2007-04-10 08:41:59 51°16.618 2°36.848 9.6165 3.507656 30.87156 -2.871232
2007-04-10 08:42:59 51°16.631 2°36.872 9.6289 3.510245 30.869558 -2.871232
2007-04-10 08:43:59 51°16.718 2°36.935 9.6318 3.510763 30.8698 -2.871232
2007-04-10 08:44:59 51°16.891 2°37.111 9.6222 3.511384 30.875063 -2.871232
2007-04-10 08:45:59 51°17.076 2°37.301 9.6188 3.509727 30.866909 -2.871232
2007-04-10 08:46:59 51°17.263 2°37.492 9.6312 3.509106 30.857635 -2.871232
2007-04-10 08:47:59 51°17.448 2°37.682 9.5991 3.510038 30.872349 -2.871232
2007-04-10 08:48:59 51°17.636 2°37.87 9.6128 3.509313 30.870085 -2.871232
2007-04-10 08:49:59 51°17.824 2°38.058 9.6072 3.508899 30.86925 -2.871232
2007-04-10 08:50:59 51°18.012 2°38.244 9.6024 3.50807 30.861159 -2.871232
2007-04-10 08:51:59 51°18.2 2°38.433 9.5959 3.507346 30.859696 -2.871232
2007-04-10 08:52:59 51°18.387 2°38.622 9.6015 3.506517 30.855616 -2.871232
2007-04-10 08:53:59 51°18.576 2°38.813 9.6118 3.506931 30.850837 -2.871232
2007-04-10 08:54:59 51°18.763 2°39.009 9.6309 3.507449 30.847072 -2.871232
2007-04-10 08:55:59 51°18.95 2°39.209 9.66 3.50952 30.844848 -2.871232
2007-04-10 08:56:59 51°19.138 2°39.405 9.6491 3.512627 30.857531 -2.871232
2007-04-10 08:57:59 51°19.325 2°39.595 9.5699 3.519256 30.967189 -2.871232
2007-04-10 08:58:59 51°19.508 2°39.786 9.5879 3.519774 31.006908 -2.871232
2007-04-10 08:59:59 51°19.706 2°39.921 9.6292 3.523088 31.012688 -2.871232
2007-04-10 09:00:59 51°19.923 2°39.933 9.5529 3.525573 31.030526 -2.871232
2007-04-10 09:01:59 51°20.142 2°39.924 9.5286 3.521742 31.04878 -2.871232
2007-04-10 09:02:59 51°20.363 2°39.921 9.5414 3.522467 31.065586 -2.871232
2007-04-10 09:03:59 51°20.584 2°39.923 9.5325 3.525885 31.098244 -2.871232
2007-04-10 09:04:59 51°20.806 2°39.93 9.4919 3.528578 31.135161 -2.871232
2007-04-10 09:05:59 51°21.023 2°39.946 9.5235 3.535414 31.229819 -2.871232
2007-04-10 09:06:59 51°21.24 2°39.962 9.5384 3.53966 31.22911 -2.871232
2007-04-10 09:07:59 51°21.457 2°39.979 9.5463 3.539867 31.231953 -2.871232
2007-04-10 09:08:59 51°21.675 2°39.998 9.5423 3.542145 31.256722 -2.871232
2007-04-10 09:09:59 51°21.893 2°40.015 9.5036 3.544942 31.289019 -2.871232
2007-04-10 09:10:59 51°22.109 2°40.032 9.4901 3.553125 31.392966 -2.871232
2007-04-10 09:11:59 51°22.326 2°40.05 9.4725 3.559132 31.463415 -2.871232
2007-04-10 09:12:59 51°22.544 2°40.065 9.5125 3.563172 31.503906 -2.871232
2007-04-10 09:13:59 51°22.763 2°40.079 9.4646 3.574358 31.598958 -2.871232
2007-04-10 09:14:59 51°22.978 2°40.101 9.4849 3.585856 31.75996 -2.871232
2007-04-10 09:15:59 51°23.192 2°40.126 9.4877 3.585752 31.723304 -2.871232
2007-04-10 09:16:59 51°23.365 2°40.318 9.4908 3.585545 31.725407 -2.871232
2007-04-10 09:17:59 51°23.462 2°40.635 9.489 3.582541 31.694222 -2.871232
2007-04-10 09:18:59 51°23.56 2°40.952 9.5011 3.589688 31.765317 -2.871232
2007-04-10 09:19:59 51°23.674 2°41.248 9.5052 3.599529 31.864595 -2.871232
2007-04-10 09:20:59 51°23.786 2°41.546 9.4736 3.607712 31.930116 -2.871232
2007-04-10 09:21:59 51°23.9 2°41.839 9.4585 3.605123 31.9288 -2.871232
2007-04-10 09:22:59 51°24.01 2°42.135 9.4195 3.599633 31.908091 -2.871232
2007-04-10 09:23:59 51°24.12 2°42.433 9.4059 3.596215 31.893592 -2.871232
2007-04-10 09:24:59 51°24.229 2°42.732 9.411 3.594661 31.885784 -2.871232
2007-04-10 09:25:59 51°24.336 2°43.033 9.4231 3.595076 31.884029 -2.871232
2007-04-10 09:26:59 51°24.437 2°43.337 9.4275 3.595387 31.890429 -2.871232
2007-04-10 09:27:59 51°24.539 2°43.642 9.4195 3.596422 31.894799 -2.871232
2007-04-10 09:28:59 51°24.64 2°43.946 9.4209 3.59549 31.896456 -2.871232
2007-04-10 09:29:59 51°24.741 2°44.25 9.4259 3.595076 31.874859 -2.871232
2007-04-10 09:30:59 51°24.841 2°44.553 9.4104 3.593315 31.865841 -2.871232
2007-04-10 09:31:59 51°24.937 2°44.86 9.4123 3.590311 31.843735 -2.871232
2007-04-10 09:32:59 51°25.031 2°45.171 9.3992 3.587307 31.819124 -2.871232
2007-04-10 09:33:59 51°25.125 2°45.483 9.4114 3.583371 31.781995 -2.871232
2007-04-10 09:34:59 51°25.214 2°45.797 9.4105 3.580781 31.749 -2.871232
2007-04-10 09:35:59 51°25.3 2°46.116 9.4411 3.578088 31.714174 -2.871232
2007-04-10 09:36:59 51°25.383 2°46.437 9.4552 3.57643 31.674661 -2.871232
2007-04-10 09:37:59 51°25.464 2°46.76 9.475 3.57353 31.630421 -2.871232
2007-04-10 09:38:59 51°25.54 2°47.085 9.4593 3.57353 31.622162 -2.871232
2007-04-10 09:39:59 51°25.621 2°47.407 9.4825 3.572598 31.614648 -2.871232
2007-04-10 09:40:59 51°25.698 2°47.701 9.4662 3.575291 31.643605 -2.871232
2007-04-10 09:41:59 51°25.749 2°47.89 9.5021 3.57498 31.631463 -2.871232
2007-04-10 09:42:59 51°25.79 2°48.032 9.5073 3.576533 31.622797 -2.871232
2007-04-10 09:43:59 51°25.839 2°48.143 9.4997 3.578294 31.636794 -2.871232
2007-04-10 09:44:59 51°25.884 2°48.234 9.4913 3.578501 31.651212 -2.871232
2007-04-10 09:45:59 51°25.917 2°48.312 9.4983 3.578398 31.647717 -2.871232
2007-04-10 09:46:59 51°25.946 2°48.374 9.513 3.578191 31.643205 -2.871232
2007-04-10 09:47:59 51°25.969 2°48.42 9.5135 3.579433 31.64221 -2.871232
2007-04-10 09:48:59 51°25.986 2°48.459 9.503 3.580159 31.651808 -2.871232
2007-04-10 09:49:59 51°25.998 2°48.496 9.4943 3.580987 31.668206 -2.871232
2007-04-10 09:50:59 51°25.998 2°48.508 9.4832 3.581505 31.683213 -2.871232
2007-04-10 09:51:59 51°25.998 2°48.516 9.466 3.581402 31.693774 -2.871232
2007-04-10 09:52:59 51°25.998 2°48.52 9.4539 3.58047 31.702816 -2.871232
2007-04-10 09:53:59 51°25.997 2°48.522 9.4462 3.580263 31.707404 -2.871232
2007-04-10 09:54:59 51°25.995 2°48.521 9.4453 3.580263 31.713204 -2.871232
2007-04-10 09:55:59 51°26.009 2°48.54 9.4408 3.580056 31.716967 -2.871232
2007-04-10 09:56:59 51°26.031 2°48.668 9.4561 3.580159 31.711356 -2.871232
2007-04-10 09:57:59 51°26.082 2°48.971 9.4941 3.580781 31.692628 -2.871232
2007-04-10 09:58:59 51°26.122 2°49.306 9.4733 3.581713 31.695175 -2.871232
2007-04-10 09:59:59 51°26.05 2°49.632 9.4883 3.579537 31.673789 -2.871232
2007-04-10 10:00:59 51°25.954 2°49.945 9.4709 3.577984 31.647775 -2.871232
2007-04-10 10:01:59 51°25.873 2°50.268 9.4774 3.574151 31.636532 -2.871232
2007-04-10 10:02:59 51°25.788 2°50.587 9.4965 3.572183 31.595726 -2.871232
2007-04-10 10:03:59 51°25.7 2°50.905 9.4901 3.570526 31.572026 -2.871232
2007-04-10 10:04:59 51°25.615 2°51.221 9.4591 3.564726 31.52657 -2.871232
2007-04-10 10:05:59 51°25.534 2°51.534 9.4821 3.557475 31.464383 -2.871232
2007-04-10 10:06:59 51°25.454 2°51.852 9.4889 3.539557 31.280253 -2.871232
2007-04-10 10:07:59 51°25.371 2°52.175 9.4836 3.53096 31.199976 -2.871232
2007-04-10 10:08:59 51°25.286 2°52.499 9.5195 3.526196 31.126428 -2.871232
2007-04-10 10:09:59 51°25.201 2°52.822 9.5322 3.527439 31.128868 -2.871232
2007-04-10 10:10:59 51°25.117 2°53.142 9.4803 3.523089 31.08544 -2.871232
2007-04-10 10:11:59 51°25.032 2°53.464 9.5268 3.511904 30.996093 -2.871232
2007-04-10 10:12:59 51°24.95 2°53.784 9.6052 3.511592 30.940593 -2.871232
2007-04-10 10:13:59 51°24.868 2°54.101 9.6032 3.506724 30.850418 -2.871232
2007-04-10 10:14:59 51°24.784 2°54.418 9.6124 3.496471 30.754318 -2.871232
2007-04-10 10:15:59 51°24.701 2°54.732 9.6343 3.487876 30.659263 -2.871232
2007-04-10 10:16:59 51°24.615 2°55.047 9.6595 3.48249 30.586071 -2.871232
2007-04-10 10:17:59 51°24.53 2°55.361 9.7087 3.48104 30.53784 -2.871232
2007-04-10 10:18:59 51°24.448 2°55.678 9.7404 3.480729 30.505538 -2.871232
2007-04-10 10:19:59 51°24.364 2°55.993 9.6992 3.473687 30.427606 -2.871232
2007-04-10 10:20:59 51°24.282 2°56.307 9.7286 3.468405 30.364487 -2.871232
2007-04-10 10:21:59 51°24.2 2°56.62 9.7208 3.45484 30.248434 -2.871232
2007-04-10 10:22:59 51°24.117 2°56.931 9.7555 3.44697 30.162639 -2.871232
2007-04-10 10:23:59 51°24.033 2°57.245 9.781 3.443967 30.100758 -2.871232
2007-04-10 10:24:59 51°23.949 2°57.558 9.8136 3.439721 30.053389 -2.871232
2007-04-10 10:25:59 51°23.865 2°57.869 9.8737 3.441377 30.007367 -2.871232
2007-04-10 10:26:59 51°23.754 2°58.157 9.9218 3.440444 29.950441 -2.871232
2007-04-10 10:27:59 51°23.618 2°58.424 9.9537 3.440237 29.918385 -2.871232
2007-04-10 10:28:59 51°23.466 2°58.668 9.9643 3.441272 29.887611 -2.871232
2007-04-10 10:29:59 51°23.298 2°58.887 9.9961 3.436923 29.857237 -2.871232
2007-04-10 10:30:59 51°23.142 2°59.126 10.0286 3.435058 29.796392 -2.871232
2007-04-10 10:31:59 51°23.017 2°59.403 10.0394 3.426153 29.716095 -2.871232
2007-04-10 10:32:59 51°22.93 2°59.707 10.1836 3.422839 29.638587 -2.871232
2007-04-10 10:33:59 51°22.877 3°0.032 10.2204 3.429465 29.584706 -2.871232
2007-04-10 10:34:59 51°22.822 3°0.356 10.2308 3.428843 29.568953 -2.871232
2007-04-10 10:35:59 51°22.766 3°0.678 10.2317 3.430086 29.567256 -2.871232
2007-04-10 10:36:59 51°22.707 3°0.996 10.2401 3.432467 29.586246 -2.871232
2007-04-10 10:37:59 51°22.659 3°1.318 10.1874 3.433606 29.610721 -2.871232
2007-04-10 10:38:59 51°22.623 3°1.644 10.1584 3.431432 29.629991 -2.871232
2007-04-10 10:39:59 51°22.592 3°1.973 10.1594 3.429776 29.623211 -2.871232
2007-04-10 10:40:59 51°22.564 3°2.298 10.0842 3.428119 29.636125 -2.871232
2007-04-10 10:41:59 51°22.539 3°2.628 10.0509 3.425635 29.649471 -2.871232
2007-04-10 10:42:59 51°22.514 3°2.957 10.0627 3.423254 29.659286 -2.871232
2007-04-10 10:43:59 51°22.49 3°3.285 10.0949 3.423668 29.654139 -2.871232
2007-04-10 10:44:59 51°22.464 3°3.613 10.1227 3.424082 29.631531 -2.871232
2007-04-10 10:45:59 51°22.438 3°3.938 10.1304 3.425427 29.605021 -2.871232
2007-04-10 10:46:59 51°22.416 3°4.264 10.1485 3.423771 29.598988 -2.871232
2007-04-10 10:47:59 51°22.399 3°4.59 10.142 3.42698 29.607789 -2.871232
2007-04-10 10:48:59 51°22.381 3°4.915 10.1381 3.427809 29.6286 -2.871232
2007-04-10 10:49:59 51°22.362 3°5.239 10.1432 3.430812 29.650554 -2.871232
2007-04-10 10:50:59 51°22.344 3°5.564 10.1112 3.432779 29.677754 -2.871232
2007-04-10 10:51:59 51°22.325 3°5.889 10.1603 3.431433 29.663333 -2.871232
2007-04-10 10:52:59 51°22.308 3°6.213 10.1657 3.430915 29.632604 -2.871232
2007-04-10 10:53:59 51°22.301 3°6.539 10.1321 3.43164 29.643332 -2.871232
2007-04-10 10:54:59 51°22.295 3°6.866 10.0989 3.430812 29.663448 -2.871232
2007-04-10 10:55:59 51°22.288 3°7.192 10.1073 3.429052 29.670103 -2.871232
2007-04-10 10:56:59 51°22.279 3°7.517 10.1205 3.429052 29.669344 -2.871232
2007-04-10 10:57:59 51°22.279 3°7.838 10.213 3.433917 29.631076 -2.871232
2007-04-10 10:58:59 51°22.28 3°8.157 10.0453 3.435057 29.700352 -2.871232
2007-04-10 10:59:59 51°22.266 3°8.478 10.0221 3.425118 29.681757 -2.871232
2007-04-10 11:00:59 51°22.249 3°8.799 10.0047 3.420251 29.651734 -2.871232
2007-04-10 11:01:59 51°22.233 3°9.122 10.024 3.417559 29.635748 -2.871232
2007-04-10 11:02:59 51°22.216 3°9.447 10.0386 3.419423 29.632366 -2.871232
2007-04-10 11:03:59 51°22.204 3°9.772 10.0776 3.421287 29.642669 -2.871232
2007-04-10 11:04:59 51°22.214 3°10.097 10.1003 3.425945 29.647136 -2.871232
2007-04-10 11:05:59 51°22.231 3°10.421 10.1149 3.427913 29.650067 -2.871232
2007-04-10 11:06:59 51°22.253 3°10.745 10.2486 3.429673 29.651771 -2.871232
2007-04-10 11:07:59 51°22.301 3°11.06 10.2553 3.435781 29.608855 -2.871232
2007-04-10 11:08:59 51°22.352 3°11.373 10.2756 3.434434 29.581668 -2.871232
2007-04-10 11:09:59 51°22.399 3°11.687 10.3029 3.432053 29.561184 -2.871232
2007-04-10 11:10:59 51°22.438 3°12.003 10.3835 3.431741 29.520615 -2.871232
2007-04-10 11:12:00 51°22.466 3°12.313 10.4393 3.436503 29.473071 -2.871232
2007-04-10 11:13:00 51°22.497 3°12.505 10.4226 3.433707 29.438277 -2.871232
2007-04-10 11:14:00 51°22.519 3°12.627 10.3682 3.423147 29.402012 -2.871232
2007-04-10 11:15:00 51°22.545 3°12.744 10.3496 3.421179 29.336325 -2.871232
2007-04-10 11:16:00 51°22.564 3°12.876 10.3375 3.413621 29.319521 -2.871232
2007-04-10 11:17:00 51°22.579 3°13.007 10.3495 3.411032 29.274048 -2.871232
2007-04-10 11:18:00 51°22.593 3°13.101 10.4177 3.407719 29.246246 -2.871232
2007-04-10 11:19:00 51°22.603 3°13.162 10.3784 3.409582 29.215746 -2.871232
2007-04-10 11:20:00 51°22.607 3°13.192 10.3318 3.404405 29.211763 -2.871232
2007-04-10 11:21:00 51°22.611 3°13.199 10.4147 3.401713 29.194319 -2.871232
2007-04-10 11:22:00 51°22.617 3°13.198 10.4527 3.406889 29.176865 -2.871232
2007-04-10 11:23:00 51°22.623 3°13.191 10.4065 3.406993 29.17563 -2.871232
2007-04-10 11:24:00 51°22.629 3°13.179 10.4124 3.404094 29.17177 -2.871232
2007-04-10 11:25:00 51°22.642 3°13.169 10.4527 3.404198 29.163878 -2.871232
2007-04-10 11:26:00 51°22.68 3°13.135 10.4668 3.406475 29.155203 -2.871232
2007-04-10 11:27:00 51°22.694 3°13.017 10.3973 3.406371 29.152744 -2.871232
2007-04-10 11:28:00 51°22.655 3°12.767 10.3958 3.401713 29.166166 -2.871232
2007-04-10 11:29:00 51°22.584 3°12.41 10.2847 3.400367 29.188931 -2.871232
2007-04-10 11:30:00 51°22.522 3°12.041 10.2525 3.399126 29.228358 -2.871232
2007-04-10 11:31:00 51°22.473 3°11.666 10.2962 3.408754 29.267989 -2.871232
2007-04-10 11:32:00 51°22.425 3°11.29 10.2299 3.411344 29.373987 -2.871232
2007-04-10 11:33:00 51°22.374 3°10.916 10.4733 3.422526 29.423758 -2.871232
2007-04-10 11:34:00 51°22.323 3°10.544 10.5071 3.44344 29.477014 -2.871232
2007-04-10 11:35:00 51°22.269 3°10.176 10.4344 3.447996 29.503094 -2.871232
2007-04-10 11:36:00 51°22.215 3°9.805 10.3306 3.446962 29.575542 -2.871232
2007-04-10 11:37:00 51°22.161 3°9.435 10.135 3.440647 29.651584 -2.871232
2007-04-10 11:38:00 51°22.105 3°9.066 10.0941 3.432261 29.676586 -2.871232
2007-04-10 11:39:00 51°22.059 3°8.694 10.0731 3.42988 29.68033 -2.871232
2007-04-10 11:40:00 51°22.014 3°8.321 10.063 3.428638 29.678288 -2.871232
2007-04-10 11:41:00 51°21.971 3°7.948 10.0279 3.425532 29.672038 -2.871232
2007-04-10 11:42:00 51°21.927 3°7.575 10.0337 3.420872 29.645533 -2.871232
2007-04-10 11:43:00 51°21.882 3°7.2 10.0262 3.420044 29.636055 -2.871232
2007-04-10 11:44:00 51°21.836 3°6.825 10.0222 3.420458 29.644596 -2.871232
2007-04-10 11:45:00 51°21.778 3°6.455 10.0504 3.423254 29.67679 -2.871232
2007-04-10 11:46:00 51°21.716 3°6.084 10.0505 3.428431 29.705214 -2.871232
2007-04-10 11:47:00 51°21.655 3°5.715 10.0884 3.430813 29.721235 -2.871232
2007-04-10 11:48:00 51°21.591 3°5.347 10.0858 3.431123 29.693773 -2.871232
2007-04-10 11:49:00 51°21.522 3°4.982 10.1002 3.429052 29.675422 -2.871232
2007-04-10 11:50:00 51°21.454 3°4.618 10.119 3.426877 29.64469 -2.871232
2007-04-10 11:51:00 51°21.388 3°4.254 10.1309 3.425427 29.612594 -2.871232
2007-04-10 11:52:00 51°21.318 3°3.893 10.1473 3.424599 29.597841 -2.871232
2007-04-10 11:53:00 51°21.244 3°3.533 10.1669 3.425324 29.592676 -2.871232
2007-04-10 11:54:00 51°21.171 3°3.172 10.1826 3.427291 29.590341 -2.871232
2007-04-10 11:55:00 51°21.098 3°2.811 10.1844 3.427498 29.58401 -2.871232
2007-04-10 11:56:01 51°21.023 3°2.443 10.1888 3.426566 29.576603 -2.871232
2007-04-10 11:57:00 51°20.949 3°2.086 10.2514 3.427394 29.568672 -2.871232
2007-04-10 11:58:00 51°20.87 3°1.723 10.2886 3.432881 29.566082 -2.871232
2007-04-10 11:59:00 51°20.787 3°1.363 10.2925 3.434537 29.563076 -2.871232
2007-04-10 12:00:00 51°20.703 3°1.003 10.2517 3.432777 29.554553 -2.871232
2007-04-10 12:01:00 51°20.621 3°0.644 10.2406 3.429257 29.545778 -2.871232
2007-04-10 12:02:00 51°20.54 3°0.283 10.2475 3.427911 29.539697 -2.871232
2007-04-10 12:03:00 51°20.459 2°59.921 10.2854 3.428843 29.533542 -2.871232
2007-04-10 12:04:00 51°20.375 2°59.561 10.2977 3.43081 29.526 -2.871232
2007-04-10 12:05:01 51°20.28 2°59.202 10.2747 3.429774 29.51612 -2.871232
2007-04-10 12:06:00 51°20.188 2°58.854 10.2847 3.427186 29.500435 -2.871232
2007-04-10 12:07:00 51°20.093 2°58.502 10.2959 3.427186 29.490673 -2.871232
2007-04-10 12:08:00 51°19.997 2°58.151 10.2787 3.426461 29.48601 -2.871232
2007-04-10 12:09:00 51°19.891 2°57.806 10.3031 3.425425 29.478383 -2.871232
2007-04-10 12:10:00 51°19.783 2°57.462 10.3279 3.4276 29.472118 -2.871232
2007-04-10 12:11:00 51°19.675 2°57.117 10.3376 3.428117 29.468809 -2.871232
2007-04-10 12:12:00 51°19.566 2°56.773 10.3149 3.428635 29.466251 -2.871232
2007-04-10 12:13:00 51°19.46 2°56.428 10.3179 3.427392 29.466397 -2.871232
2007-04-10 12:14:00 51°19.353 2°56.085 10.3477 3.426668 29.465483 -2.871232
2007-04-10 12:15:00 51°19.245 2°55.742 10.4352 3.430395 29.451582 -2.871232
2007-04-10 12:16:01 51°19.134 2°55.392 10.5255 3.435054 29.452565 -2.871232
2007-04-10 12:17:00 51°19.028 2°55.054 10.5351 3.441783 29.403265 -2.871232
2007-04-10 12:18:00 51°18.921 2°54.71 10.3944 3.437641 29.41454 -2.871232
2007-04-10 12:19:00 51°18.812 2°54.367 10.3413 3.425942 29.433868 -2.871232
2007-04-10 12:20:00 51°18.705 2°54.023 10.49 3.428841 29.397985 -2.871232
2007-04-10 12:21:00 51°18.601 2°53.675 10.5994 3.436503 29.416384 -2.871232
2007-04-10 12:22:00 51°18.5 2°53.324 10.6606 3.444164 29.381317 -2.871232
2007-04-10 12:23:00 51°18.398 2°52.973 10.6996 3.448512 29.389119 -2.871232
2007-04-10 12:24:00 51°18.278 2°52.64 10.5636 3.461871 29.533973 -2.871232
2007-04-10 12:25:00 51°18.081 2°52.437 10.5406 3.455866 29.544904 -2.871232
2007-04-10 12:26:00 51°17.848 2°52.379 10.4447 3.454002 29.529471 -2.871232
2007-04-10 12:27:00 51°17.613 2°52.347 10.3287 3.449861 29.61139 -2.871232
2007-04-10 12:28:00 51°17.377 2°52.328 10.2578 3.446652 29.65608 -2.871232
2007-04-10 12:29:00 51°17.144 2°52.336 10.2474 3.445203 29.694371 -2.871232
2007-04-10 12:30:00 51°16.947 2°52.496 10.2207 3.446135 29.705549 -2.871232
2007-04-10 12:31:00 51°16.815 2°52.778 10.183 3.44189 29.711165 -2.871232
2007-04-10 12:32:00 51°16.694 2°53.078 10.2164 3.439509 29.686096 -2.871232
2007-04-10 12:33:00 51°16.586 2°53.358 10.2686 3.438059 29.644225 -2.871232
2007-04-10 12:34:00 51°16.495 2°53.631 10.311 3.438369 29.613213 -2.871232
2007-04-10 12:35:00 51°16.426 2°53.854 10.3941 3.437644 29.573903 -2.871232
2007-04-10 12:36:00 51°16.377 2°53.971 10.4258 3.429462 29.428515 -2.871232
2007-04-10 12:37:00 51°16.35 2°54.05 10.5065 3.424388 29.330386 -2.871232
2007-04-10 12:38:00 51°16.331 2°54.11 10.5272 3.424491 29.279454 -2.871232
2007-04-10 12:39:00 51°16.311 2°54.178 10.6274 3.423559 29.249176 -2.871232
2007-04-10 12:40:00 51°16.296 2°54.249 10.7985 3.432151 29.197089 -2.871232
2007-04-10 12:41:00 51°16.29 2°54.296 10.7985 3.438363 29.19257 -2.871232
2007-04-10 12:42:00 51°16.288 2°54.318 10.8102 3.439398 29.18182 -2.871232
2007-04-10 12:43:00 51°16.286 2°54.327 10.8324 3.439916 29.177914 -2.871232
2007-04-10 12:44:00 51°16.283 2°54.328 10.8482 3.441572 29.170835 -2.871232
2007-04-10 12:45:00 51°16.28 2°54.324 10.8245 3.442918 29.166689 -2.871232
2007-04-10 12:46:00 51°16.276 2°54.315 10.7188 3.439605 29.178649 -2.871232
2007-04-10 12:47:00 51°16.27 2°54.303 10.596 3.429977 29.199342 -2.871232
2007-04-10 12:48:01 51°16.271 2°54.299 10.5452 3.422316 29.200525 -2.871232
2007-04-10 12:49:00 51°16.275 2°54.326 10.426 3.419417 29.198891 -2.871232
2007-04-10 12:50:00 51°16.241 2°54.374 10.4651 3.409892 29.218696 -2.871232
2007-04-10 12:51:00 51°16.136 2°54.402 10.5328 3.414447 29.185019 -2.871232
2007-04-10 12:52:00 51°15.969 2°54.418 10.4091 3.414654 29.199532 -2.871232
2007-04-10 12:53:00 51°15.788 2°54.437 10.4922 3.407822 29.221997 -2.871232
2007-04-10 12:54:00 51°15.606 2°54.458 10.7837 3.432669 29.185095 -2.871232
2007-04-10 12:55:00 51°15.428 2°54.495 10.4142 3.421797 29.160317 -2.871232
2007-04-10 12:56:00 51°15.25 2°54.539 10.4239 3.398503 29.120151 -2.871232
2007-04-10 12:57:00 51°15.073 2°54.59 10.4474 3.398088 29.084502 -2.871232
2007-04-10 12:58:00 51°14.899 2°54.658 10.5457 3.393222 29.02585 -2.871232
2007-04-10 12:59:00 51°14.708 2°54.757 10.5778 3.392289 28.937162 -2.871232
2007-04-10 13:00:00 51°14.515 2°54.904 10.5569 3.383074 28.809354 -2.871232
2007-04-10 13:01:00 51°14.349 2°55.121 11.2027 3.373031 28.731279 -2.871232
2007-04-10 13:02:00 51°14.199 2°55.344 10.9156 3.219202 26.877696 -2.871232
2007-04-10 13:03:01 51°14.046 2°55.469 10.7296 3.122756 26.204408 -2.871232
2007-04-10 13:04:00 51°13.924 2°55.559 10.6827 3.064712 25.750862 -2.871232
2007-04-10 13:05:00 51°13.805 2°55.654 10.711 3.023122 25.360408 -2.871232
2007-04-10 13:06:00 51°13.708 2°55.791 11.2332 2.863211 23.782666 -2.871232
2007-04-10 13:07:00 51°13.653 2°55.916 11.3699 2.64743 21.593748 -2.871232
2007-04-10 13:08:00 51°13.618 2°56.013 11.1318 2.609082 21.233168 -2.871232
2007-04-10 13:09:00 51°13.605 2°56.079 11.1645 2.716279 22.294759 -2.871232
2007-04-10 13:10:00 51°13.601 2°56.096 11.1675 2.688366 22.008156 -2.871232